| time (UTC) | temp C | wind direction | speed KPH | gust KPH | rain 1hr cm | rain 24hr cm | rain mn cm | humidity % | barometer mb |
| 20260507181717 | 13 | 57 | 1.6 | 4.8 | 0.00 | 0.15 | 0.15 | 67 | 1015.6 |
| 20260507180718 | 14 | 294 | 1.6 | 6.4 | 0.00 | 0.15 | 0.15 | 66 | 1015.5 |
| 20260507175715 | 15 | 302 | 3.2 | 6.4 | 0.00 | 0.15 | 0.15 | 63 | 1015.4 |
| 20260507174716 | 15 | 300 | 3.2 | 9.7 | 0.00 | 0.15 | 0.15 | 62 | 1015.3 |
| 20260507173716 | 14 | 310 | 1.6 | 6.4 | 0.00 | 0.15 | 0.15 | 65 | 1015.2 |
| 20260507172717 | 14 | 293 | 1.6 | 6.4 | 0.00 | 0.15 | 0.15 | 64 | 1015.3 |
| 20260507171717 | 15 | 308 | 3.2 | 6.4 | 0.00 | 0.15 | 0.15 | 64 | 1015.2 |
| 20260507170718 | 15 | 291 | 4.8 | 11.3 | 0.00 | 0.15 | 0.15 | 61 | 1015.1 |
| 20260507165715 | 16 | 287 | 3.2 | 9.7 | 0.00 | 0.15 | 0.15 | 61 | 1015.1 |
| 20260507164715 | 16 | 289 | 4.8 | 12.9 | 0.00 | 0.15 | 0.15 | 63 | 1015.1 |
| 20260507163716 | 16 | 285 | 4.8 | 12.9 | 0.00 | 0.15 | 0.15 | 61 | 1015.1 |
| 20260507162716 | 16 | 288 | 3.2 | 9.7 | 0.00 | 0.15 | 0.15 | 61 | 1015.1 |
| 20260507161717 | 16 | 283 | 3.2 | 11.3 | 0.00 | 0.15 | 0.15 | 61 | 1015.1 |
| 20260507160717 | 16 | 300 | 6.4 | 12.9 | 0.00 | 0.15 | 0.15 | 61 | 1015.1 |
| 20260507155717 | 16 | 286 | 3.2 | 9.7 | 0.00 | 0.15 | 0.15 | 60 | 1015.1 |
| 20260507154715 | 16 | 294 | 3.2 | 11.3 | 0.00 | 0.15 | 0.15 | 63 | 1015.1 |
| 20260507153715 | 16 | 282 | 3.2 | 12.9 | 0.00 | 0.15 | 0.15 | 61 | 1015.1 |
| 20260507152716 | 16 | 297 | 3.2 | 8.0 | 0.00 | 0.15 | 0.15 | 61 | 1015.1 |
| 20260507151716 | 16 | 298 | 4.8 | 9.7 | 0.00 | 0.15 | 0.15 | 62 | 1015.2 |
| 20260507150717 | 16 | 314 | 4.8 | 12.9 | 0.00 | 0.15 | 0.15 | 62 | 1015.2 |
| 20260507145717 | 16 | 314 | 4.8 | 16.1 | 0.00 | 0.15 | 0.15 | 62 | 1015.2 |
| 20260507144717 | 16 | 32 | 3.2 | 11.3 | 0.00 | 0.15 | 0.15 | 63 | 1015.1 |
| 20260507143715 | 16 | 292 | 4.8 | 9.7 | 0.00 | 0.15 | 0.15 | 64 | 1015.1 |
| 20260507142715 | 15 | 297 | 1.6 | 8.0 | 0.00 | 0.15 | 0.15 | 67 | 1015.2 |
| 20260507141716 | 14 | 240 | 1.6 | 8.0 | 0.00 | 0.15 | 0.15 | 69 | 1015.2 |
| 20260507140716 | 13 | 249 | 3.2 | 9.7 | 0.00 | 0.15 | 0.15 | 69 | 1015.2 |
| 20260507135717 | 13 | 291 | 3.2 | 11.3 | 0.00 | 0.15 | 0.15 | 69 | 1015.4 |
| 20260507134717 | 13 | 316 | 1.6 | 4.8 | 0.00 | 0.15 | 0.15 | 69 | 1015.4 |
| 20260507133718 | 14 | 311 | 3.2 | 8.0 | 0.00 | 0.18 | 0.15 | 69 | 1015.4 |
| 20260507132715 | 14 | 274 | 3.2 | 8.0 | 0.00 | 0.20 | 0.15 | 70 | 1015.5 |
| 20260507131715 | 14 | 61 | 1.6 | 6.4 | 0.00 | 0.23 | 0.15 | 71 | 1015.6 |
| 20260507130716 | 15 | 288 | 4.8 | 16.1 | 0.00 | 0.23 | 0.15 | 70 | 1015.6 |
| 20260507125716 | 14 | 288 | 4.8 | 16.1 | 0.00 | 0.25 | 0.15 | 72 | 1015.5 |
| 20260507124717 | 14 | 296 | 6.4 | 14.5 | 0.00 | 0.28 | 0.15 | 73 | 1015.6 |
| 20260507123717 | 14 | 260 | 3.2 | 8.0 | 0.00 | 0.30 | 0.15 | 75 | 1015.5 |
| 20260507122718 | 14 | 295 | 4.8 | 14.5 | 0.00 | 0.33 | 0.15 | 73 | 1015.5 |
| 20260507121715 | 13 | 335 | 3.2 | 9.7 | 0.00 | 0.33 | 0.15 | 74 | 1015.6 |
| 20260507120715 | 13 | 296 | 6.4 | 14.5 | 0.00 | 0.38 | 0.15 | 76 | 1015.6 |
| 20260507115716 | 13 | 300 | 4.8 | 11.3 | 0.00 | 0.51 | 0.15 | 76 | 1015.5 |
| 20260507114716 | 13 | 304 | 4.8 | 16.1 | 0.00 | 0.53 | 0.15 | 75 | 1015.5 |
| 20260507113717 | 13 | 287 | 3.2 | 12.9 | 0.00 | 0.56 | 0.15 | 78 | 1015.7 |
| 20260507112717 | 12 | 289 | 3.2 | 6.4 | 0.00 | 0.58 | 0.15 | 80 | 1015.6 |
| 20260507111718 | 12 | 338 | 0.0 | 3.2 | 0.00 | 0.58 | 0.15 | 82 | 1015.7 |
| 20260507110715 | 12 | 294 | 3.2 | 4.8 | 0.00 | 0.61 | 0.15 | 81 | 1015.7 |
| 20260507105716 | 12 | 333 | 1.6 | 4.8 | 0.00 | 0.61 | 0.15 | 83 | 1015.7 |
| 20260507104716 | 11 | 198 | 0.0 | 3.2 | 0.00 | 0.61 | 0.15 | 86 | 1015.8 |
| 20260507103716 | 11 | 203 | 1.6 | 8.0 | 0.00 | 0.61 | 0.15 | 84 | 1015.8 |
| 20260507102717 | 11 | 290 | 1.6 | 4.8 | 0.00 | 0.61 | 0.15 | 86 | 1015.8 |
| 20260507101717 | 11 | 182 | 1.6 | 3.2 | 0.00 | 0.61 | 0.15 | 86 | 1015.8 |
| 20260507100717 | 11 | 232 | 1.6 | 4.8 | 0.00 | 0.61 | 0.15 | 86 | 1015.8 |
| 20260507095715 | 12 | 238 | 1.6 | 6.4 | 0.00 | 0.61 | 0.15 | 84 | 1015.8 |
| 20260507094716 | 11 | 205 | 1.6 | 9.7 | 0.00 | 0.61 | 0.15 | 85 | 1015.8 |
| 20260507093716 | 11 | 211 | 1.6 | 8.0 | 0.00 | 0.61 | 0.15 | 86 | 1015.8 |
| 20260507092717 | 11 | 227 | 1.6 | 6.4 | 0.00 | 0.61 | 0.15 | 89 | 1015.7 |
| 20260507091717 | 10 | 213 | 4.8 | 11.3 | 0.00 | 0.61 | 0.15 | 91 | 1015.7 |
| 20260507090717 | 10 | 218 | 1.6 | 6.4 | 0.00 | 0.61 | 0.15 | 91 | 1015.7 |
| 20260507085718 | 10 | 269 | 1.6 | 4.8 | 0.00 | 0.61 | 0.15 | 92 | 1015.6 |
| 20260507084716 | 9 | 218 | 0.0 | 4.8 | 0.00 | 0.61 | 0.15 | 94 | 1015.6 |
| 20260507083715 | 9 | 215 | 3.2 | 11.3 | 0.03 | 0.61 | 0.15 | 95 | 1015.5 |
| 20260507082716 | 8 | 220 | 3.2 | 6.4 | 0.03 | 0.61 | 0.15 | 95 | 1015.5 |
| 20260507081717 | 8 | 217 | 1.6 | 6.4 | 0.03 | 0.61 | 0.15 | 96 | 1015.6 |
| 20260507080717 | 8 | 217 | 3.2 | 8.0 | 0.05 | 0.61 | 0.15 | 96 | 1015.5 |
| 20260507075717 | 8 | 222 | 3.2 | 6.4 | 0.05 | 0.61 | 0.15 | 95 | 1015.5 |
| 20260507074717 | 8 | 220 | 1.6 | 6.4 | 0.05 | 0.61 | 0.15 | 96 | 1015.4 |
| 20260507073716 | 8 | 220 | 1.6 | 3.2 | 0.03 | 0.61 | 0.15 | 95 | 1015.3 |
| 20260507072716 | 8 | 220 | 1.6 | 4.8 | 0.05 | 0.61 | 0.15 | 96 | 1015.3 |
| 20260507071716 | 7 | 0.0 | 0.0 | 0.05 | 0.61 | 0.15 | 96 | 1015.2 | |
| 20260507070717 | 7 | 0.0 | 0.0 | 0.03 | 0.58 | 0.13 | 96 | 1015.2 | |
| 20260507065717 | 7 | 0.0 | 0.0 | 0.03 | 0.58 | 0.13 | 95 | 1015.1 | |
| 20260507064717 | 7 | 229 | 0.0 | 1.6 | 0.03 | 0.58 | 0.13 | 95 | 1015.0 |
| 20260507063718 | 7 | 222 | 1.6 | 6.4 | 0.03 | 0.58 | 0.13 | 95 | 1014.9 |
| 20260507062715 | 7 | 221 | 1.6 | 6.4 | 0.00 | 0.56 | 0.10 | 95 | 1014.9 |
| 20260507061716 | 7 | 201 | 0.0 | 1.6 | 0.00 | 0.56 | 0.10 | 95 | 1014.9 |
| 20260507060716 | 7 | 0.0 | 0.0 | 0.00 | 0.56 | 0.10 | 95 | 1014.8 | |
| 20260507055717 | 7 | 206 | 1.6 | 6.4 | 0.00 | 0.56 | 0.10 | 95 | 1014.7 |
| 20260507054717 | 7 | 215 | 1.6 | 4.8 | 0.00 | 0.56 | 0.10 | 95 | 1014.6 |
| 20260507053717 | 7 | 212 | 1.6 | 6.4 | 0.00 | 0.56 | 0.10 | 95 | 1014.4 |
| 20260507052717 | 7 | 227 | 3.2 | 6.4 | 0.00 | 0.56 | 0.10 | 95 | 1014.3 |
| 20260507051715 | 7 | 209 | 1.6 | 8.0 | 0.00 | 0.56 | 0.10 | 96 | 1014.3 |
| 20260507050716 | 7 | 221 | 0.0 | 6.4 | 0.00 | 0.56 | 0.10 | 96 | 1014.1 |
| 20260507045716 | 7 | 206 | 0.0 | 1.6 | 0.00 | 0.56 | 0.10 | 96 | 1014.1 |
| 20260507044717 | 7 | 235 | 0.0 | 3.2 | 0.00 | 0.56 | 0.10 | 96 | 1013.9 |
| 20260507043717 | 7 | 223 | 0.0 | 3.2 | 0.03 | 0.56 | 0.10 | 96 | 1013.8 |
| 20260507042717 | 7 | 227 | 0.0 | 3.2 | 0.03 | 0.56 | 0.10 | 96 | 1013.8 |
| 20260507041717 | 7 | 214 | 3.2 | 8.0 | 0.05 | 0.56 | 0.10 | 96 | 1013.7 |
| 20260507040715 | 7 | 220 | 3.2 | 9.7 | 0.05 | 0.56 | 0.10 | 96 | 1013.7 |
| 20260507035716 | 7 | 225 | 1.6 | 4.8 | 0.05 | 0.56 | 0.10 | 96 | 1013.6 |
| 20260507034716 | 7 | 0.0 | 0.0 | 0.08 | 0.56 | 0.10 | 96 | 1013.6 | |
| 20260507033716 | 7 | 229 | 0.0 | 3.2 | 0.08 | 0.53 | 0.08 | 96 | 1013.6 |
| 20260507032715 | 7 | 209 | 1.6 | 45.1 | 0.08 | 0.53 | 0.08 | 96 | 1013.5 |
| 20260507031717 | 7 | 207 | 3.2 | 8.0 | 0.05 | 0.51 | 0.05 | 95 | 1013.4 |
| 20260507030718 | 7 | 214 | 3.2 | 8.0 | 0.05 | 0.51 | 0.05 | 95 | 1013.3 |
| 20260507025715 | 7 | 217 | 3.2 | 6.4 | 0.05 | 0.51 | 0.05 | 95 | 1013.3 |
| 20260507024716 | 6 | 221 | 3.2 | 11.3 | 0.03 | 0.48 | 0.03 | 95 | 1013.3 |
| 20260507023717 | 7 | 231 | 0.0 | 1.6 | 0.00 | 0.46 | 0.00 | 95 | 1013.4 |
| 20260507022717 | 7 | 225 | 0.0 | 1.6 | 0.00 | 0.46 | 0.00 | 95 | 1013.3 |
| 20260507021717 | 7 | 217 | 1.6 | 4.8 | 0.00 | 0.46 | 0.00 | 95 | 1013.2 |
| 20260507020717 | 7 | 214 | 3.2 | 6.4 | 0.00 | 0.46 | 0.00 | 94 | 1013.2 |
| 20260507015717 | 7 | 201 | 1.6 | 6.4 | 0.00 | 0.46 | 0.00 | 94 | 1013.2 |
| 20260507014715 | 7 | 215 | 1.6 | 9.7 | 0.00 | 0.46 | 0.00 | 94 | 1013.0 |
| 20260507013716 | 7 | 217 | 1.6 | 4.8 | 0.00 | 0.46 | 0.00 | 93 | 1012.9 |
| 20260507012716 | 7 | 204 | 3.2 | 8.0 | 0.00 | 0.46 | 0.00 | 93 | 1012.8 |
| 20260507011717 | 7 | 218 | 4.8 | 11.3 | 0.00 | 0.46 | 0.00 | 92 | 1012.8 |
| 20260507010717 | 7 | 219 | 4.8 | 11.3 | 0.00 | 0.46 | 0.00 | 92 | 1012.8 |
| 20260507005717 | 7 | 215 | 6.4 | 12.9 | 0.00 | 0.46 | 0.00 | 92 | 1012.7 |
| 20260507004718 | 7 | 211 | 6.4 | 16.1 | 0.00 | 0.46 | 0.00 | 92 | 1012.7 |
| 20260507003715 | 7 | 219 | 8.0 | 16.1 | 0.00 | 0.46 | 0.00 | 92 | 1012.6 |
| 20260507002716 | 7 | 219 | 9.7 | 22.5 | 0.00 | 0.46 | 0.00 | 94 | 1012.6 |
| 20260507001716 | 6 | 211 | 4.8 | 9.7 | 0.00 | 0.46 | 0.00 | 96 | 1012.7 |
| 20260507000716 | 6 | 221 | 4.8 | 11.3 | 0.00 | 0.46 | 0.00 | 96 | 1012.7 |
| 20260506235717 | 6 | 217 | 4.8 | 11.3 | 0.00 | 0.46 | 0.00 | 95 | 1012.6 |
| 20260506234718 | 7 | 205 | 3.2 | 8.0 | 0.00 | 0.46 | 0.00 | 95 | 1012.6 |
| 20260506233718 | 7 | 216 | 3.2 | 6.4 | 0.00 | 0.46 | 0.00 | 94 | 1012.6 |
| 20260506232716 | 7 | 218 | 3.2 | 8.0 | 0.00 | 0.46 | 0.00 | 95 | 1012.5 |
| 20260506231716 | 7 | 208 | 3.2 | 6.4 | 0.00 | 0.46 | 0.00 | 95 | 1012.4 |
| 20260506230716 | 7 | 214 | 1.6 | 4.8 | 0.00 | 0.46 | 0.00 | 95 | 1012.4 |
| 20260506225716 | 7 | 232 | 0.0 | 1.6 | 0.00 | 0.46 | 0.00 | 95 | 1012.4 |
| 20260506224717 | 7 | 187 | 0.0 | 1.6 | 0.00 | 0.46 | 0.00 | 95 | 1012.4 |
| 20260506223717 | 6 | 0.0 | 0.0 | 0.00 | 0.46 | 0.00 | 95 | 1012.5 | |
| 20260506222717 | 6 | 0.0 | 0.0 | 0.00 | 0.46 | 0.00 | 93 | 1012.5 | |
| 20260506221715 | 7 | 0.0 | 0.0 | 0.00 | 0.46 | 0.00 | 93 | 1012.4 | |
| 20260506220716 | 7 | 0.0 | 0.0 | 0.00 | 0.46 | 0.00 | 92 | 1012.3 | |
| 20260506215716 | 7 | 224 | 0.0 | 3.2 | 0.00 | 0.46 | 0.46 | 91 | 1012.4 |
| 20260506214717 | 7 | 209 | 1.6 | 6.4 | 0.00 | 0.46 | 0.46 | 91 | 1012.4 |
| 20260506213717 | 7 | 154 | 0.0 | 3.2 | 0.00 | 0.46 | 0.46 | 91 | 1012.4 |
| 20260506212717 | 7 | 219 | 1.6 | 4.8 | 0.00 | 0.46 | 0.46 | 90 | 1012.3 |
| 20260506211718 | 8 | 208 | 1.6 | 8.0 | 0.00 | 0.46 | 0.46 | 90 | 1012.3 |
| 20260506210716 | 8 | 218 | 1.6 | 8.0 | 0.00 | 0.46 | 0.46 | 90 | 1012.2 |
| 20260506205716 | 8 | 201 | 0.0 | 4.8 | 0.00 | 0.46 | 0.46 | 90 | 1012.3 |
| 20260506204716 | 8 | 214 | 1.6 | 3.2 | 0.00 | 0.46 | 0.46 | 91 | 1012.2 |
| 20260506203716 | 7 | 156 | 3.2 | 8.0 | 0.00 | 0.46 | 0.46 | 92 | 1012.3 |
| 20260506202717 | 7 | 147 | 1.6 | 8.0 | 0.00 | 0.46 | 0.46 | 93 | 1012.3 |
| 20260506201717 | 7 | 0.0 | 0.0 | 0.00 | 0.46 | 0.46 | 91 | 1012.2 | |
| 20260506200717 | 7 | 187 | 0.0 | 1.6 | 0.00 | 0.46 | 0.46 | 91 | 1012.0 |
| 20260506195715 | 7 | 0.0 | 0.0 | 0.00 | 0.46 | 0.46 | 91 | 1011.8 | |
| 20260506194716 | 8 | 216 | 0.0 | 4.8 | 0.00 | 0.46 | 0.46 | 91 | 1011.7 |
| 20260506193716 | 8 | 204 | 1.6 | 8.0 | 0.00 | 0.46 | 0.46 | 90 | 1011.5 |
| 20260506192716 | 8 | 213 | 3.2 | 11.3 | 0.00 | 0.46 | 0.46 | 90 | 1011.4 |
| 20260506191717 | 8 | 219 | 6.4 | 12.9 | 0.00 | 0.46 | 0.46 | 90 | 1011.3 |
| 20260506190718 | 8 | 219 | 4.8 | 14.5 | 0.00 | 0.46 | 0.46 | 89 | 1011.3 |
| 20260506185718 | 8 | 220 | 4.8 | 12.9 | 0.00 | 0.46 | 0.46 | 89 | 1011.2 |
| 20260506184715 | 8 | 221 | 4.8 | 14.5 | 0.00 | 0.46 | 0.46 | 90 | 1011.2 |
| 20260506183716 | 8 | 213 | 4.8 | 11.3 | 0.00 | 0.46 | 0.46 | 90 | 1011.2 |
| 20260506182716 | 8 | 210 | 4.8 | 14.5 | 0.00 | 0.46 | 0.46 | 91 | 1011.0 |